sensor_id;sensor_type;location;lat;lon;timestamp;P1;durP1;ratioP1;P2;durP2;ratioP2
26080;SDS011;13991;51.174;4.438;2022-08-01T00:02:12;20.67;;;4.43;;
26080;SDS011;13991;51.174;4.438;2022-08-01T00:04:37;13.27;;;4.40;;
26080;SDS011;13991;51.174;4.438;2022-08-01T00:07:03;17.97;;;4.70;;
26080;SDS011;13991;51.174;4.438;2022-08-01T00:09:29;13.97;;;5.03;;
26080;SDS011;13991;51.174;4.438;2022-08-01T00:11:54;14.73;;;4.93;;
26080;SDS011;13991;51.174;4.438;2022-08-01T00:14:20;18.17;;;4.90;;
26080;SDS011;13991;51.174;4.438;2022-08-01T00:16:46;21.30;;;5.80;;
26080;SDS011;13991;51.174;4.438;2022-08-01T00:19:11;17.17;;;5.10;;
26080;SDS011;13991;51.174;4.438;2022-08-01T00:21:37;20.97;;;5.83;;
26080;SDS011;13991;51.174;4.438;2022-08-01T00:24:03;27.43;;;5.87;;
26080;SDS011;13991;51.174;4.438;2022-08-01T00:26:28;20.53;;;5.27;;
26080;SDS011;13991;51.174;4.438;2022-08-01T00:28:54;16.43;;;5.90;;
26080;SDS011;13991;51.174;4.438;2022-08-01T00:31:20;18.00;;;6.80;;
26080;SDS011;13991;51.174;4.438;2022-08-01T00:33:45;32.03;;;7.00;;
26080;SDS011;13991;51.174;4.438;2022-08-01T00:36:11;21.57;;;7.37;;
26080;SDS011;13991;51.174;4.438;2022-08-01T00:38:37;27.63;;;8.37;;
26080;SDS011;13991;51.174;4.438;2022-08-01T00:41:02;18.37;;;7.37;;
26080;SDS011;13991;51.174;4.438;2022-08-01T00:43:28;20.73;;;6.30;;
26080;SDS011;13991;51.174;4.438;2022-08-01T00:45:54;29.83;;;7.87;;
26080;SDS011;13991;51.174;4.438;2022-08-01T00:48:19;22.60;;;8.00;;
26080;SDS011;13991;51.174;4.438;2022-08-01T00:50:45;18.73;;;8.57;;
26080;SDS011;13991;51.174;4.438;2022-08-01T00:53:11;25.77;;;7.67;;
26080;SDS011;13991;51.174;4.438;2022-08-01T00:55:37;17.40;;;7.50;;
26080;SDS011;13991;51.174;4.438;2022-08-01T00:58:03;24.73;;;8.20;;
26080;SDS011;13991;51.174;4.438;2022-08-01T01:00:30;18.60;;;7.67;;
26080;SDS011;13991;51.174;4.438;2022-08-01T01:02:57;26.57;;;8.07;;
26080;SDS011;13991;51.174;4.438;2022-08-01T01:05:22;26.93;;;8.33;;
26080;SDS011;13991;51.174;4.438;2022-08-01T01:08:02;21.47;;;7.67;;
26080;SDS011;13991;51.174;4.438;2022-08-01T01:13:12;22.43;;;8.03;;
26080;SDS011;13991;51.174;4.438;2022-08-01T01:16:10;31.70;;;8.97;;
26080;SDS011;13991;51.174;4.438;2022-08-01T01:26:38;51.27;;;21.30;;
26080;SDS011;13991;51.174;4.438;2022-08-01T01:29:30;52.23;;;25.87;;
26080;SDS011;13991;51.174;4.438;2022-08-01T01:32:07;78.70;;;32.50;;
26080;SDS011;13991;51.174;4.438;2022-08-01T01:34:40;66.23;;;34.10;;
26080;SDS011;13991;51.174;4.438;2022-08-01T01:37:10;64.73;;;32.33;;
26080;SDS011;13991;51.174;4.438;2022-08-01T01:39:40;68.27;;;28.97;;
26080;SDS011;13991;51.174;4.438;2022-08-01T01:42:08;78.90;;;29.87;;
26080;SDS011;13991;51.174;4.438;2022-08-01T01:44:34;65.87;;;26.93;;
26080;SDS011;13991;51.174;4.438;2022-08-01T01:47:02;62.20;;;25.37;;
26080;SDS011;13991;51.174;4.438;2022-08-01T01:49:29;49.77;;;21.10;;
26080;SDS011;13991;51.174;4.438;2022-08-01T01:51:57;45.13;;;21.37;;
26080;SDS011;13991;51.174;4.438;2022-08-01T01:54:24;47.73;;;19.83;;
26080;SDS011;13991;51.174;4.438;2022-08-01T01:56:55;48.03;;;21.53;;
26080;SDS011;13991;51.174;4.438;2022-08-01T01:59:24;44.17;;;20.73;;
26080;SDS011;13991;51.174;4.438;2022-08-01T02:01:54;39.83;;;19.50;;
26080;SDS011;13991;51.174;4.438;2022-08-01T02:04:23;50.73;;;21.03;;
26080;SDS011;13991;51.174;4.438;2022-08-01T02:06:50;46.20;;;20.80;;
26080;SDS011;13991;51.174;4.438;2022-08-01T02:09:18;42.80;;;19.13;;
26080;SDS011;13991;51.174;4.438;2022-08-01T02:11:46;46.70;;;20.10;;
26080;SDS011;13991;51.174;4.438;2022-08-01T02:14:13;58.97;;;19.70;;
26080;SDS011;13991;51.174;4.438;2022-08-01T02:16:41;54.83;;;19.23;;
26080;SDS011;13991;51.174;4.438;2022-08-01T02:19:09;37.97;;;17.37;;
26080;SDS011;13991;51.174;4.438;2022-08-01T02:24:13;55.60;;;17.80;;
26080;SDS011;13991;51.174;4.438;2022-08-01T02:26:49;43.80;;;17.50;;
26080;SDS011;13991;51.174;4.438;2022-08-01T02:30:01;46.33;;;14.67;;
26080;SDS011;13991;51.174;4.438;2022-08-01T02:32:10;33.80;;;11.33;;
26080;SDS011;13991;51.174;4.438;2022-08-01T02:34:41;38.03;;;11.53;;
26080;SDS011;13991;51.174;4.438;2022-08-01T02:37:11;31.67;;;11.37;;
26080;SDS011;13991;51.174;4.438;2022-08-01T02:39:37;38.43;;;10.37;;
26080;SDS011;13991;51.174;4.438;2022-08-01T02:42:05;31.47;;;10.73;;
26080;SDS011;13991;51.174;4.438;2022-08-01T02:44:34;31.90;;;10.90;;
26080;SDS011;13991;51.174;4.438;2022-08-01T02:47:03;31.60;;;9.83;;
26080;SDS011;13991;51.174;4.438;2022-08-01T02:49:39;29.17;;;11.03;;
26080;SDS011;13991;51.174;4.438;2022-08-01T02:52:10;29.93;;;10.37;;
26080;SDS011;13991;51.174;4.438;2022-08-01T02:54:39;33.50;;;9.37;;
26080;SDS011;13991;51.174;4.438;2022-08-01T02:57:07;31.47;;;9.33;;
26080;SDS011;13991;51.174;4.438;2022-08-01T02:59:33;26.90;;;8.77;;
26080;SDS011;13991;51.174;4.438;2022-08-01T03:02:02;27.13;;;8.83;;
26080;SDS011;13991;51.174;4.438;2022-08-01T03:04:31;30.50;;;8.57;;
26080;SDS011;13991;51.174;4.438;2022-08-01T03:07:00;24.90;;;8.53;;
26080;SDS011;13991;51.174;4.438;2022-08-01T03:09:29;20.20;;;7.97;;
26080;SDS011;13991;51.174;4.438;2022-08-01T03:11:58;25.97;;;8.33;;
26080;SDS011;13991;51.174;4.438;2022-08-01T03:14:26;27.50;;;8.07;;
26080;SDS011;13991;51.174;4.438;2022-08-01T03:16:55;24.50;;;7.77;;
26080;SDS011;13991;51.174;4.438;2022-08-01T03:19:23;30.27;;;8.23;;
26080;SDS011;13991;51.174;4.438;2022-08-01T03:21:51;25.67;;;7.57;;
26080;SDS011;13991;51.174;4.438;2022-08-01T03:24:17;21.77;;;7.03;;
26080;SDS011;13991;51.174;4.438;2022-08-01T03:26:44;19.30;;;6.57;;
26080;SDS011;13991;51.174;4.438;2022-08-01T03:29:15;14.93;;;6.37;;
26080;SDS011;13991;51.174;4.438;2022-08-01T03:31:46;24.97;;;6.87;;
26080;SDS011;13991;51.174;4.438;2022-08-01T03:34:13;20.37;;;6.73;;
26080;SDS011;13991;51.174;4.438;2022-08-01T03:36:46;22.00;;;6.50;;
26080;SDS011;13991;51.174;4.438;2022-08-01T03:39:14;23.63;;;6.33;;
26080;SDS011;13991;51.174;4.438;2022-08-01T03:41:43;16.10;;;5.83;;
26080;SDS011;13991;51.174;4.438;2022-08-01T03:44:14;26.93;;;6.77;;
26080;SDS011;13991;51.174;4.438;2022-08-01T03:46:54;18.43;;;6.23;;
26080;SDS011;13991;51.174;4.438;2022-08-01T03:49:25;19.80;;;6.27;;
26080;SDS011;13991;51.174;4.438;2022-08-01T03:51:55;16.87;;;6.00;;
26080;SDS011;13991;51.174;4.438;2022-08-01T03:54:23;23.13;;;5.27;;
26080;SDS011;13991;51.174;4.438;2022-08-01T03:56:53;13.67;;;5.73;;
26080;SDS011;13991;51.174;4.438;2022-08-01T03:59:19;9.00;;;5.10;;
26080;SDS011;13991;51.174;4.438;2022-08-01T04:01:46;17.43;;;6.07;;
26080;SDS011;13991;51.174;4.438;2022-08-01T04:04:13;16.10;;;5.70;;
26080;SDS011;13991;51.174;4.438;2022-08-01T04:06:40;14.40;;;5.33;;
26080;SDS011;13991;51.174;4.438;2022-08-01T04:09:07;12.97;;;4.80;;
26080;SDS011;13991;51.174;4.438;2022-08-01T04:11:33;12.67;;;5.33;;
26080;SDS011;13991;51.174;4.438;2022-08-01T04:13:58;9.70;;;4.87;;
26080;SDS011;13991;51.174;4.438;2022-08-01T04:16:24;14.00;;;4.80;;
26080;SDS011;13991;51.174;4.438;2022-08-01T04:18:50;10.00;;;4.67;;
26080;SDS011;13991;51.174;4.438;2022-08-01T04:21:17;13.67;;;4.93;;
26080;SDS011;13991;51.174;4.438;2022-08-01T04:23:47;16.63;;;4.93;;
26080;SDS011;13991;51.174;4.438;2022-08-01T04:26:13;9.10;;;4.07;;
26080;SDS011;13991;51.174;4.438;2022-08-01T04:28:41;11.73;;;4.30;;
26080;SDS011;13991;51.174;4.438;2022-08-01T04:31:09;12.33;;;3.70;;
26080;SDS011;13991;51.174;4.438;2022-08-01T04:33:36;11.33;;;3.50;;
26080;SDS011;13991;51.174;4.438;2022-08-01T04:36:05;8.23;;;3.70;;
26080;SDS011;13991;51.174;4.438;2022-08-01T04:38:33;12.10;;;4.10;;
26080;SDS011;13991;51.174;4.438;2022-08-01T04:41:03;10.47;;;3.70;;
26080;SDS011;13991;51.174;4.438;2022-08-01T04:43:31;12.20;;;3.60;;
26080;SDS011;13991;51.174;4.438;2022-08-01T04:45:57;10.23;;;3.60;;
26080;SDS011;13991;51.174;4.438;2022-08-01T04:48:24;10.27;;;3.13;;
26080;SDS011;13991;51.174;4.438;2022-08-01T04:50:51;13.33;;;3.00;;
26080;SDS011;13991;51.174;4.438;2022-08-01T04:53:17;8.97;;;3.70;;
26080;SDS011;13991;51.174;4.438;2022-08-01T04:55:44;14.07;;;3.83;;
26080;SDS011;13991;51.174;4.438;2022-08-01T04:58:11;13.73;;;2.93;;
26080;SDS011;13991;51.174;4.438;2022-08-01T05:00:37;10.57;;;3.00;;
26080;SDS011;13991;51.174;4.438;2022-08-01T05:03:03;12.93;;;3.33;;
26080;SDS011;13991;51.174;4.438;2022-08-01T05:05:28;9.20;;;2.70;;
26080;SDS011;13991;51.174;4.438;2022-08-01T05:07:55;8.77;;;2.53;;
26080;SDS011;13991;51.174;4.438;2022-08-01T05:10:21;11.73;;;3.73;;
26080;SDS011;13991;51.174;4.438;2022-08-01T05:12:47;6.77;;;2.67;;
26080;SDS011;13991;51.174;4.438;2022-08-01T05:15:12;13.43;;;3.40;;
26080;SDS011;13991;51.174;4.438;2022-08-01T05:17:38;12.43;;;2.70;;
26080;SDS011;13991;51.174;4.438;2022-08-01T05:20:04;12.23;;;3.20;;
26080;SDS011;13991;51.174;4.438;2022-08-01T05:22:31;8.17;;;2.53;;
26080;SDS011;13991;51.174;4.438;2022-08-01T05:24:57;9.10;;;2.93;;
26080;SDS011;13991;51.174;4.438;2022-08-01T05:27:24;7.60;;;2.60;;
26080;SDS011;13991;51.174;4.438;2022-08-01T05:29:50;9.03;;;2.17;;
26080;SDS011;13991;51.174;4.438;2022-08-01T05:32:16;3.83;;;1.63;;
26080;SDS011;13991;51.174;4.438;2022-08-01T05:34:42;5.97;;;1.63;;
26080;SDS011;13991;51.174;4.438;2022-08-01T05:37:08;8.37;;;1.47;;
26080;SDS011;13991;51.174;4.438;2022-08-01T05:39:34;1.37;;;1.17;;
26080;SDS011;13991;51.174;4.438;2022-08-01T05:42:00;5.17;;;1.63;;
26080;SDS011;13991;51.174;4.438;2022-08-01T05:44:25;7.97;;;1.70;;
26080;SDS011;13991;51.174;4.438;2022-08-01T05:46:51;9.30;;;1.70;;
26080;SDS011;13991;51.174;4.438;2022-08-01T05:49:17;3.30;;;1.03;;
26080;SDS011;13991;51.174;4.438;2022-08-01T05:51:43;3.27;;;1.03;;
26080;SDS011;13991;51.174;4.438;2022-08-01T05:54:08;8.87;;;2.03;;
26080;SDS011;13991;51.174;4.438;2022-08-01T05:56:34;4.37;;;1.47;;
26080;SDS011;13991;51.174;4.438;2022-08-01T06:02:22;7.60;;;1.33;;
26080;SDS011;13991;51.174;4.438;2022-08-01T06:04:48;3.07;;;1.80;;
26080;SDS011;13991;51.174;4.438;2022-08-01T06:07:13;3.63;;;1.60;;
26080;SDS011;13991;51.174;4.438;2022-08-01T06:09:39;8.20;;;1.57;;
26080;SDS011;13991;51.174;4.438;2022-08-01T06:12:04;4.07;;;1.70;;
26080;SDS011;13991;51.174;4.438;2022-08-01T06:14:31;5.37;;;1.07;;
26080;SDS011;13991;51.174;4.438;2022-08-01T06:16:57;6.70;;;0.90;;
26080;SDS011;13991;51.174;4.438;2022-08-01T06:19:23;4.37;;;1.00;;
26080;SDS011;13991;51.174;4.438;2022-08-01T06:21:48;2.73;;;0.90;;
26080;SDS011;13991;51.174;4.438;2022-08-01T06:24:17;2.33;;;0.97;;
26080;SDS011;13991;51.174;4.438;2022-08-01T06:26:43;2.57;;;0.70;;
26080;SDS011;13991;51.174;4.438;2022-08-01T06:29:08;7.10;;;1.07;;
26080;SDS011;13991;51.174;4.438;2022-08-01T06:31:34;4.67;;;1.13;;
26080;SDS011;13991;51.174;4.438;2022-08-01T06:34:00;6.90;;;1.20;;
26080;SDS011;13991;51.174;4.438;2022-08-01T06:36:25;7.93;;;0.80;;
26080;SDS011;13991;51.174;4.438;2022-08-01T06:38:51;5.53;;;1.03;;
26080;SDS011;13991;51.174;4.438;2022-08-01T06:41:17;5.90;;;0.90;;
26080;SDS011;13991;51.174;4.438;2022-08-01T06:43:43;3.70;;;0.90;;
26080;SDS011;13991;51.174;4.438;2022-08-01T06:46:08;4.50;;;0.70;;
26080;SDS011;13991;51.174;4.438;2022-08-01T06:48:34;2.80;;;0.70;;
26080;SDS011;13991;51.174;4.438;2022-08-01T06:51:04;2.70;;;0.60;;
26080;SDS011;13991;51.174;4.438;2022-08-01T06:53:33;3.30;;;0.60;;
26080;SDS011;13991;51.174;4.438;2022-08-01T06:56:00;8.00;;;0.63;;
26080;SDS011;13991;51.174;4.438;2022-08-01T06:58:26;7.10;;;0.30;;
26080;SDS011;13991;51.174;4.438;2022-08-01T07:00:51;3.37;;;0.40;;
26080;SDS011;13991;51.174;4.438;2022-08-01T07:03:17;7.60;;;0.60;;
26080;SDS011;13991;51.174;4.438;2022-08-01T07:05:42;7.73;;;0.60;;
26080;SDS011;13991;51.174;4.438;2022-08-01T07:08:08;4.57;;;0.87;;
26080;SDS011;13991;51.174;4.438;2022-08-01T07:10:37;6.37;;;0.40;;
26080;SDS011;13991;51.174;4.438;2022-08-01T07:13:03;1.87;;;0.40;;
26080;SDS011;13991;51.174;4.438;2022-08-01T07:15:28;5.67;;;0.57;;
26080;SDS011;13991;51.174;4.438;2022-08-01T07:17:54;4.80;;;0.33;;
26080;SDS011;13991;51.174;4.438;2022-08-01T07:20:21;1.67;;;0.40;;
26080;SDS011;13991;51.174;4.438;2022-08-01T07:22:47;2.97;;;0.40;;
26080;SDS011;13991;51.174;4.438;2022-08-01T07:25:13;3.30;;;0.30;;
26080;SDS011;13991;51.174;4.438;2022-08-01T07:27:39;6.53;;;0.70;;
26080;SDS011;13991;51.174;4.438;2022-08-01T07:30:05;6.63;;;0.60;;
26080;SDS011;13991;51.174;4.438;2022-08-01T07:32:31;5.60;;;0.70;;
26080;SDS011;13991;51.174;4.438;2022-08-01T07:34:57;2.93;;;0.73;;
26080;SDS011;13991;51.174;4.438;2022-08-01T07:37:22;3.13;;;0.75;;
26080;SDS011;13991;51.174;4.438;2022-08-01T07:39:49;8.07;;;0.60;;
26080;SDS011;13991;51.174;4.438;2022-08-01T07:42:15;3.90;;;0.60;;
26080;SDS011;13991;51.174;4.438;2022-08-01T07:44:41;3.13;;;0.70;;
26080;SDS011;13991;51.174;4.438;2022-08-01T07:47:07;6.07;;;0.67;;
26080;SDS011;13991;51.174;4.438;2022-08-01T07:49:33;5.30;;;0.80;;
26080;SDS011;13991;51.174;4.438;2022-08-01T07:51:59;4.00;;;0.73;;
26080;SDS011;13991;51.174;4.438;2022-08-01T07:54:25;3.60;;;0.70;;
26080;SDS011;13991;51.174;4.438;2022-08-01T07:56:52;4.87;;;0.97;;
26080;SDS011;13991;51.174;4.438;2022-08-01T07:59:18;4.83;;;0.93;;
26080;SDS011;13991;51.174;4.438;2022-08-01T08:01:48;2.33;;;0.93;;
26080;SDS011;13991;51.174;4.438;2022-08-01T08:04:15;3.90;;;0.80;;
26080;SDS011;13991;51.174;4.438;2022-08-01T08:06:40;1.93;;;0.80;;
26080;SDS011;13991;51.174;4.438;2022-08-01T08:09:06;5.10;;;0.60;;
26080;SDS011;13991;51.174;4.438;2022-08-01T08:11:32;5.47;;;0.90;;
26080;SDS011;13991;51.174;4.438;2022-08-01T08:13:58;5.40;;;0.90;;
26080;SDS011;13991;51.174;4.438;2022-08-01T08:16:23;3.97;;;0.77;;
26080;SDS011;13991;51.174;4.438;2022-08-01T08:18:49;5.90;;;1.40;;
26080;SDS011;13991;51.174;4.438;2022-08-01T08:21:14;10.10;;;1.07;;
26080;SDS011;13991;51.174;4.438;2022-08-01T08:23:40;3.17;;;0.90;;
26080;SDS011;13991;51.174;4.438;2022-08-01T08:26:24;7.07;;;0.90;;
26080;SDS011;13991;51.174;4.438;2022-08-01T08:28:50;2.57;;;0.90;;
26080;SDS011;13991;51.174;4.438;2022-08-01T08:31:16;6.30;;;1.20;;
26080;SDS011;13991;51.174;4.438;2022-08-01T08:33:41;8.53;;;0.97;;
26080;SDS011;13991;51.174;4.438;2022-08-01T08:36:07;7.30;;;0.70;;
26080;SDS011;13991;51.174;4.438;2022-08-01T08:38:33;3.77;;;0.90;;
26080;SDS011;13991;51.174;4.438;2022-08-01T08:40:59;5.27;;;0.97;;
26080;SDS011;13991;51.174;4.438;2022-08-01T08:43:24;9.07;;;1.13;;
26080;SDS011;13991;51.174;4.438;2022-08-01T08:45:51;10.10;;;1.37;;
26080;SDS011;13991;51.174;4.438;2022-08-01T08:48:17;8.30;;;1.40;;
26080;SDS011;13991;51.174;4.438;2022-08-01T08:50:43;6.47;;;1.83;;
26080;SDS011;13991;51.174;4.438;2022-08-01T08:53:10;15.30;;;2.53;;
26080;SDS011;13991;51.174;4.438;2022-08-01T08:55:38;5.23;;;1.87;;
26080;SDS011;13991;51.174;4.438;2022-08-01T08:58:08;7.43;;;1.40;;
26080;SDS011;13991;51.174;4.438;2022-08-01T09:00:38;7.37;;;2.17;;
26080;SDS011;13991;51.174;4.438;2022-08-01T09:03:05;12.57;;;3.07;;
26080;SDS011;13991;51.174;4.438;2022-08-01T09:05:30;11.53;;;2.27;;
26080;SDS011;13991;51.174;4.438;2022-08-01T09:07:56;8.27;;;1.87;;
26080;SDS011;13991;51.174;4.438;2022-08-01T09:10:22;12.17;;;2.07;;
26080;SDS011;13991;51.174;4.438;2022-08-01T09:13:04;8.50;;;2.30;;
26080;SDS011;13991;51.174;4.438;2022-08-01T09:15:52;9.87;;;2.30;;
26080;SDS011;13991;51.174;4.438;2022-08-01T09:18:34;23.90;;;3.00;;
26080;SDS011;13991;51.174;4.438;2022-08-01T09:23:32;17.23;;;2.03;;
26080;SDS011;13991;51.174;4.438;2022-08-01T09:25:58;10.97;;;1.80;;
26080;SDS011;13991;51.174;4.438;2022-08-01T09:28:27;10.00;;;2.07;;
26080;SDS011;13991;51.174;4.438;2022-08-01T09:30:55;17.00;;;2.47;;
26080;SDS011;13991;51.174;4.438;2022-08-01T09:33:47;10.93;;;1.93;;
26080;SDS011;13991;51.174;4.438;2022-08-01T09:36:20;5.67;;;1.47;;
26080;SDS011;13991;51.174;4.438;2022-08-01T09:38:49;8.30;;;1.33;;
26080;SDS011;13991;51.174;4.438;2022-08-01T09:41:15;7.03;;;2.17;;
26080;SDS011;13991;51.174;4.438;2022-08-01T09:43:47;3.20;;;1.47;;
26080;SDS011;13991;51.174;4.438;2022-08-01T09:46:15;8.97;;;1.97;;
26080;SDS011;13991;51.174;4.438;2022-08-01T09:49:00;9.17;;;1.70;;
26080;SDS011;13991;51.174;4.438;2022-08-01T09:51:38;10.00;;;1.33;;
26080;SDS011;13991;51.174;4.438;2022-08-01T09:54:08;11.97;;;1.83;;
26080;SDS011;13991;51.174;4.438;2022-08-01T09:56:38;7.50;;;1.30;;
26080;SDS011;13991;51.174;4.438;2022-08-01T09:59:07;8.10;;;1.10;;
26080;SDS011;13991;51.174;4.438;2022-08-01T10:01:49;5.20;;;1.60;;
26080;SDS011;13991;51.174;4.438;2022-08-01T10:04:17;11.13;;;1.87;;
26080;SDS011;13991;51.174;4.438;2022-08-01T10:06:45;7.57;;;1.42;;
26080;SDS011;13991;51.174;4.438;2022-08-01T10:09:31;5.05;;;1.30;;
26080;SDS011;13991;51.174;4.438;2022-08-01T10:11:59;5.22;;;1.65;;
26080;SDS011;13991;51.174;4.438;2022-08-01T10:14:26;8.30;;;2.03;;
26080;SDS011;13991;51.174;4.438;2022-08-01T10:16:53;10.07;;;2.60;;
26080;SDS011;13991;51.174;4.438;2022-08-01T10:19:23;14.10;;;2.10;;
26080;SDS011;13991;51.174;4.438;2022-08-01T10:21:51;5.65;;;1.40;;
26080;SDS011;13991;51.174;4.438;2022-08-01T10:24:19;3.83;;;1.80;;
26080;SDS011;13991;51.174;4.438;2022-08-01T10:26:51;4.28;;;1.67;;
26080;SDS011;13991;51.174;4.438;2022-08-01T10:29:20;10.98;;;2.33;;
26080;SDS011;13991;51.174;4.438;2022-08-01T10:31:47;6.07;;;1.85;;
26080;SDS011;13991;51.174;4.438;2022-08-01T10:34:13;17.02;;;2.20;;
26080;SDS011;13991;51.174;4.438;2022-08-01T10:36:42;6.88;;;2.15;;
26080;SDS011;13991;51.174;4.438;2022-08-01T10:39:12;5.07;;;1.50;;
26080;SDS011;13991;51.174;4.438;2022-08-01T10:41:39;6.13;;;1.48;;
26080;SDS011;13991;51.174;4.438;2022-08-01T10:44:08;4.45;;;1.20;;
26080;SDS011;13991;51.174;4.438;2022-08-01T10:46:38;8.07;;;1.92;;
26080;SDS011;13991;51.174;4.438;2022-08-01T10:49:07;7.30;;;2.30;;
26080;SDS011;13991;51.174;4.438;2022-08-01T10:51:37;9.00;;;2.20;;
26080;SDS011;13991;51.174;4.438;2022-08-01T10:54:08;7.57;;;2.47;;
26080;SDS011;13991;51.174;4.438;2022-08-01T10:56:53;15.50;;;2.10;;
26080;SDS011;13991;51.174;4.438;2022-08-01T11:01:55;8.85;;;1.90;;
26080;SDS011;13991;51.174;4.438;2022-08-01T11:04:24;4.28;;;1.33;;
26080;SDS011;13991;51.174;4.438;2022-08-01T11:07:05;11.20;;;1.80;;
26080;SDS011;13991;51.174;4.438;2022-08-01T11:10:03;21.30;;;1.60;;
26080;SDS011;13991;51.174;4.438;2022-08-01T11:12:37;4.55;;;0.90;;
26080;SDS011;13991;51.174;4.438;2022-08-01T11:30:45;7.40;;;1.00;;
26080;SDS011;13991;51.174;4.438;2022-08-01T11:33:12;3.13;;;0.88;;
26080;SDS011;13991;51.174;4.438;2022-08-01T11:36:25;11.43;;;1.45;;
26080;SDS011;13991;51.174;4.438;2022-08-01T11:38:38;7.97;;;1.60;;
26080;SDS011;13991;51.174;4.438;2022-08-01T11:41:22;11.45;;;1.20;;
26080;SDS011;13991;51.174;4.438;2022-08-01T11:52:04;8.65;;;1.45;;
26080;SDS011;13991;51.174;4.438;2022-08-01T11:54:30;8.73;;;1.25;;
26080;SDS011;13991;51.174;4.438;2022-08-01T11:56:58;4.65;;;0.90;;
26080;SDS011;13991;51.174;4.438;2022-08-01T11:59:26;6.13;;;1.23;;
26080;SDS011;13991;51.174;4.438;2022-08-01T12:01:52;13.52;;;1.25;;
26080;SDS011;13991;51.174;4.438;2022-08-01T12:04:18;8.65;;;2.17;;
26080;SDS011;13991;51.174;4.438;2022-08-01T12:06:44;10.55;;;2.22;;
26080;SDS011;13991;51.174;4.438;2022-08-01T12:09:29;15.13;;;2.13;;
26080;SDS011;13991;51.174;4.438;2022-08-01T12:11:54;6.22;;;1.52;;
26080;SDS011;13991;51.174;4.438;2022-08-01T12:14:20;7.43;;;1.38;;
26080;SDS011;13991;51.174;4.438;2022-08-01T12:16:50;7.50;;;1.33;;
26080;SDS011;13991;51.174;4.438;2022-08-01T12:19:18;10.60;;;1.25;;
26080;SDS011;13991;51.174;4.438;2022-08-01T12:22:07;12.77;;;1.23;;
26080;SDS011;13991;51.174;4.438;2022-08-01T12:24:41;10.57;;;1.27;;
26080;SDS011;13991;51.174;4.438;2022-08-01T12:27:08;8.23;;;1.42;;
26080;SDS011;13991;51.174;4.438;2022-08-01T12:29:36;14.95;;;1.73;;
26080;SDS011;13991;51.174;4.438;2022-08-01T12:32:28;7.97;;;2.25;;
26080;SDS011;13991;51.174;4.438;2022-08-01T12:35:00;11.95;;;1.20;;
26080;SDS011;13991;51.174;4.438;2022-08-01T12:37:28;4.97;;;1.08;;
26080;SDS011;13991;51.174;4.438;2022-08-01T12:39:53;6.68;;;1.10;;
26080;SDS011;13991;51.174;4.438;2022-08-01T12:42:20;9.90;;;0.98;;
26080;SDS011;13991;51.174;4.438;2022-08-01T12:44:47;9.35;;;0.68;;
26080;SDS011;13991;51.174;4.438;2022-08-01T12:47:16;6.18;;;1.17;;
26080;SDS011;13991;51.174;4.438;2022-08-01T12:49:43;11.07;;;1.33;;
26080;SDS011;13991;51.174;4.438;2022-08-01T12:52:09;10.77;;;1.25;;
26080;SDS011;13991;51.174;4.438;2022-08-01T12:57:27;9.25;;;1.00;;
26080;SDS011;13991;51.174;4.438;2022-08-01T12:59:52;3.78;;;1.13;;
26080;SDS011;13991;51.174;4.438;2022-08-01T13:02:18;6.35;;;1.13;;
26080;SDS011;13991;51.174;4.438;2022-08-01T13:04:50;4.50;;;1.30;;
26080;SDS011;13991;51.174;4.438;2022-08-01T13:07:16;5.25;;;1.08;;
26080;SDS011;13991;51.174;4.438;2022-08-01T13:09:51;4.47;;;0.85;;
26080;SDS011;13991;51.174;4.438;2022-08-01T13:12:17;4.50;;;0.75;;
26080;SDS011;13991;51.174;4.438;2022-08-01T13:14:43;4.00;;;0.90;;
26080;SDS011;13991;51.174;4.438;2022-08-01T13:17:08;5.85;;;0.80;;
26080;SDS011;13991;51.174;4.438;2022-08-01T13:19:44;2.45;;;0.60;;
26080;SDS011;13991;51.174;4.438;2022-08-01T13:22:12;6.15;;;0.77;;
26080;SDS011;13991;51.174;4.438;2022-08-01T13:24:37;8.85;;;0.93;;
26080;SDS011;13991;51.174;4.438;2022-08-01T13:27:04;4.93;;;1.00;;
26080;SDS011;13991;51.174;4.438;2022-08-01T13:29:31;7.03;;;0.68;;
26080;SDS011;13991;51.174;4.438;2022-08-01T13:31:57;6.53;;;0.70;;
26080;SDS011;13991;51.174;4.438;2022-08-01T13:34:30;4.63;;;0.68;;
26080;SDS011;13991;51.174;4.438;2022-08-01T13:37:00;6.43;;;0.50;;
26080;SDS011;13991;51.174;4.438;2022-08-01T13:39:27;4.55;;;0.80;;
26080;SDS011;13991;51.174;4.438;2022-08-01T13:42:15;23.52;;;2.90;;
26080;SDS011;13991;51.174;4.438;2022-08-01T13:44:41;8.35;;;0.98;;
26080;SDS011;13991;51.174;4.438;2022-08-01T13:47:10;8.45;;;1.05;;
26080;SDS011;13991;51.174;4.438;2022-08-01T13:49:36;9.68;;;0.70;;
26080;SDS011;13991;51.174;4.438;2022-08-01T13:52:02;3.30;;;0.65;;
26080;SDS011;13991;51.174;4.438;2022-08-01T13:54:30;8.02;;;0.80;;
26080;SDS011;13991;51.174;4.438;2022-08-01T13:56:56;5.50;;;0.70;;
26080;SDS011;13991;51.174;4.438;2022-08-01T13:59:22;7.35;;;1.27;;
26080;SDS011;13991;51.174;4.438;2022-08-01T14:01:48;5.75;;;0.85;;
26080;SDS011;13991;51.174;4.438;2022-08-01T14:04:13;7.03;;;1.20;;
26080;SDS011;13991;51.174;4.438;2022-08-01T14:06:39;3.90;;;0.68;;
26080;SDS011;13991;51.174;4.438;2022-08-01T14:09:05;4.60;;;0.70;;
26080;SDS011;13991;51.174;4.438;2022-08-01T14:11:31;2.83;;;0.63;;
26080;SDS011;13991;51.174;4.438;2022-08-01T14:13:57;6.63;;;1.13;;
26080;SDS011;13991;51.174;4.438;2022-08-01T14:16:23;8.15;;;0.95;;
26080;SDS011;13991;51.174;4.438;2022-08-01T14:18:50;6.30;;;1.08;;
26080;SDS011;13991;51.174;4.438;2022-08-01T14:21:16;5.55;;;1.08;;
26080;SDS011;13991;51.174;4.438;2022-08-01T14:23:42;11.48;;;1.23;;
26080;SDS011;13991;51.174;4.438;2022-08-01T14:26:08;11.82;;;1.23;;
26080;SDS011;13991;51.174;4.438;2022-08-01T14:28:34;4.53;;;0.80;;
26080;SDS011;13991;51.174;4.438;2022-08-01T14:31:00;6.47;;;1.27;;
26080;SDS011;13991;51.174;4.438;2022-08-01T14:33:26;8.60;;;1.15;;
26080;SDS011;13991;51.174;4.438;2022-08-01T14:35:52;4.22;;;0.60;;
26080;SDS011;13991;51.174;4.438;2022-08-01T14:38:18;8.98;;;0.77;;
26080;SDS011;13991;51.174;4.438;2022-08-01T14:40:44;5.68;;;0.80;;
26080;SDS011;13991;51.174;4.438;2022-08-01T14:43:12;6.90;;;1.20;;
26080;SDS011;13991;51.174;4.438;2022-08-01T14:45:38;6.25;;;0.90;;
26080;SDS011;13991;51.174;4.438;2022-08-01T14:48:04;4.00;;;0.80;;
26080;SDS011;13991;51.174;4.438;2022-08-01T14:50:29;9.10;;;0.95;;
26080;SDS011;13991;51.174;4.438;2022-08-01T14:52:55;4.25;;;0.82;;
26080;SDS011;13991;51.174;4.438;2022-08-01T14:55:21;4.03;;;0.82;;
26080;SDS011;13991;51.174;4.438;2022-08-01T14:57:50;5.68;;;0.82;;
26080;SDS011;13991;51.174;4.438;2022-08-01T15:00:15;4.10;;;0.63;;
26080;SDS011;13991;51.174;4.438;2022-08-01T15:02:42;6.10;;;0.80;;
26080;SDS011;13991;51.174;4.438;2022-08-01T15:05:08;8.00;;;0.73;;
26080;SDS011;13991;51.174;4.438;2022-08-01T15:07:34;4.45;;;0.50;;
26080;SDS011;13991;51.174;4.438;2022-08-01T15:10:00;4.30;;;0.65;;
26080;SDS011;13991;51.174;4.438;2022-08-01T15:12:27;1.48;;;0.40;;
26080;SDS011;13991;51.174;4.438;2022-08-01T15:14:52;4.50;;;0.57;;
26080;SDS011;13991;51.174;4.438;2022-08-01T15:19:45;6.07;;;0.80;;
26080;SDS011;13991;51.174;4.438;2022-08-01T15:22:12;8.95;;;1.00;;
26080;SDS011;13991;51.174;4.438;2022-08-01T15:24:38;2.28;;;0.50;;
26080;SDS011;13991;51.174;4.438;2022-08-01T15:27:05;3.42;;;0.60;;
26080;SDS011;13991;51.174;4.438;2022-08-01T15:29:30;3.25;;;0.60;;
26080;SDS011;13991;51.174;4.438;2022-08-01T15:31:58;3.25;;;0.45;;
26080;SDS011;13991;51.174;4.438;2022-08-01T15:34:23;6.75;;;0.57;;
26080;SDS011;13991;51.174;4.438;2022-08-01T15:36:50;2.83;;;0.60;;
26080;SDS011;13991;51.174;4.438;2022-08-01T15:39:16;3.90;;;0.70;;